createdAt,value
2017-07-24T14:18:06.812Z,25.5
2017-07-24T14:19:08.700Z,25.5
2017-07-24T14:20:10.546Z,25.5
2017-07-24T14:21:12.492Z,25.5
2017-07-24T14:22:14.542Z,25.5
2017-07-24T14:27:23.602Z,24.9
2017-07-24T14:28:25.484Z,24.2
2017-07-24T14:29:18.823Z,24.3
2017-07-24T14:30:20.736Z,23.7
2017-07-24T14:31:22.626Z,23.9
2017-07-24T14:32:24.502Z,24.1
2017-07-24T14:33:26.780Z,23.8
2017-07-24T14:34:28.668Z,24.1
2017-07-24T14:35:32.639Z,24.2
2017-07-24T14:36:34.315Z,24.9
2017-07-24T14:37:38.156Z,24.5
2017-07-24T14:38:40.086Z,24.3
2017-07-24T14:39:41.921Z,24.2
2017-07-24T14:40:51.923Z,24.7
2017-07-24T15:02:20.473Z,24.4
2017-07-24T15:03:21.993Z,24.8
2017-07-24T15:04:23.709Z,24.8
2017-07-24T15:05:26.796Z,25.1
2017-07-24T15:06:28.531Z,24.7
2017-07-24T15:07:30.246Z,25.0
2017-07-24T15:08:31.973Z,25.0
2017-07-24T15:09:33.695Z,24.8
2017-07-24T15:10:35.457Z,24.6
2017-07-24T15:11:37.204Z,24.7
2017-07-24T15:12:38.964Z,24.9
2017-07-24T15:13:40.671Z,25.1
2017-07-24T15:14:42.389Z,24.8
2017-07-24T15:15:44.165Z,24.2
2017-07-24T15:16:45.957Z,24.6
2017-07-24T15:17:47.756Z,24.8
2017-07-24T15:18:49.469Z,24.7
2017-07-24T15:19:53.640Z,25.1
2017-07-24T15:20:55.377Z,24.2
2017-07-24T15:21:57.094Z,25.0
2017-07-24T15:22:58.862Z,24.7
2017-07-24T15:24:00.596Z,24.4
2017-07-24T15:25:03.457Z,24.7
2017-07-24T15:26:05.199Z,24.4
2017-07-24T15:27:06.928Z,24.8
2017-07-24T15:28:08.657Z,24.7
2017-07-24T15:29:13.407Z,24.6
2017-07-24T15:30:15.122Z,25.0
2017-07-24T15:31:16.915Z,24.8
2017-07-24T15:32:18.670Z,25.0
2017-07-24T15:33:20.438Z,25.5
2017-07-24T15:34:22.199Z,25.7
2017-07-24T15:35:23.970Z,25.7
2017-07-24T15:36:25.724Z,25.2
2017-07-24T15:37:27.603Z,25.1
2017-07-24T15:38:29.239Z,24.6
2017-07-24T15:39:31.078Z,24.8
2017-07-24T15:40:32.830Z,24.9
2017-07-24T15:41:34.566Z,24.5
2017-07-24T15:42:36.362Z,24.8
2017-07-24T15:43:38.095Z,24.5
2017-07-24T15:44:39.884Z,25.0
2017-07-24T15:45:41.615Z,24.8
2017-07-24T15:46:43.354Z,24.7
2017-07-24T15:47:45.082Z,24.8
2017-07-24T15:48:46.804Z,24.5
2017-07-24T15:49:48.537Z,24.8
2017-07-24T15:50:50.272Z,25.0
2017-07-24T15:51:51.993Z,24.8
2017-07-24T15:52:53.714Z,24.8
2017-07-24T15:53:55.494Z,25.0
2017-07-24T15:54:57.237Z,25.0
2017-07-24T15:55:58.952Z,25.1
2017-07-24T15:57:00.682Z,24.8
2017-07-24T15:58:02.457Z,25.0
2017-07-24T15:59:04.197Z,24.8
2017-07-24T16:00:05.964Z,24.8
2017-07-24T16:01:07.705Z,24.8
2017-07-24T16:02:09.462Z,24.9
2017-07-24T16:03:11.188Z,25.0
2017-07-24T16:04:12.936Z,24.9
2017-07-24T16:05:14.672Z,24.8
2017-07-24T16:06:16.420Z,24.9
2017-07-24T16:07:18.151Z,24.9
2017-07-24T16:08:19.898Z,24.8
2017-07-24T16:09:21.615Z,24.9
2017-07-24T16:10:23.331Z,25.2
2017-07-24T16:11:25.068Z,25.5
2017-07-24T16:12:26.803Z,25.3
2017-07-24T16:13:28.527Z,24.9
2017-07-24T16:14:30.242Z,24.8
2017-07-24T16:15:31.978Z,24.9
2017-07-24T16:16:33.695Z,24.6
2017-07-24T16:17:35.440Z,25.0
2017-07-24T16:18:37.163Z,24.8
2017-07-24T16:19:38.885Z,25.1
2017-07-24T16:20:40.600Z,24.7
2017-07-24T16:21:42.337Z,25.0
2017-07-24T16:22:44.091Z,25.4
2017-07-24T16:23:45.831Z,24.7
2017-07-24T16:24:47.547Z,24.9
2017-07-24T16:25:49.280Z,25.3
2017-07-24T16:26:51.009Z,24.9
2017-07-24T16:27:52.732Z,24.8
2017-07-24T16:28:54.434Z,24.7
2017-07-24T16:29:56.189Z,24.8
2017-07-24T16:30:57.903Z,25.8
2017-07-24T16:31:59.643Z,25.5
2017-07-24T16:33:01.326Z,25.4
2017-07-24T16:34:03.068Z,25.4
2017-07-24T16:35:04.803Z,25.1
2017-07-24T16:36:06.515Z,25.3
2017-07-24T16:37:08.244Z,25.1
2017-07-24T16:38:09.955Z,25.1
2017-07-24T16:39:11.696Z,25.0
2017-07-24T16:40:13.459Z,24.8
2017-07-24T16:41:15.158Z,24.8
2017-07-24T16:42:17.904Z,24.8
2017-07-24T16:43:19.619Z,25.4
2017-07-24T16:44:22.277Z,25.3
2017-07-24T16:45:23.997Z,25.6
2017-07-24T16:46:25.769Z,25.4
2017-07-24T16:47:27.507Z,25.1
2017-07-24T16:48:29.227Z,25.0
2017-07-24T16:49:30.971Z,24.8
2017-07-24T16:50:32.684Z,24.9
2017-07-24T16:51:34.445Z,24.9
2017-07-24T16:52:36.164Z,24.6
2017-07-24T16:53:37.906Z,24.7
2017-07-24T16:54:39.620Z,24.9
2017-07-24T16:55:41.363Z,24.7
2017-07-24T16:56:43.076Z,24.7
2017-07-24T16:57:44.814Z,24.4
2017-07-24T16:58:46.546Z,24.8
2017-07-24T16:59:48.318Z,24.4
2017-07-24T17:00:50.046Z,24.9
2017-07-24T17:01:51.783Z,24.8
2017-07-24T17:02:53.505Z,25.2
2017-07-24T17:03:55.299Z,25.0
2017-07-24T17:04:57.018Z,25.1
2017-07-24T17:05:58.727Z,24.4
2017-07-24T17:07:00.453Z,24.7
2017-07-24T17:08:02.192Z,24.6
2017-07-24T17:09:03.929Z,25.0
2017-07-24T17:10:05.671Z,24.6
2017-07-24T17:11:07.410Z,24.6
2017-07-24T17:12:09.140Z,24.6
2017-07-24T17:13:10.938Z,24.6
2017-07-24T17:14:12.683Z,25.1
2017-07-24T17:15:14.401Z,24.8
2017-07-24T17:16:16.170Z,24.9
2017-07-24T17:17:17.872Z,25.1
2017-07-24T17:18:19.619Z,25.9
2017-07-24T17:19:21.353Z,25.1
2017-07-24T17:20:23.088Z,24.8
2017-07-24T17:21:24.827Z,24.9
2017-07-24T17:22:26.557Z,24.7
2017-07-24T17:23:28.918Z,24.2
2017-07-24T17:24:30.643Z,24.4
2017-07-24T17:25:32.384Z,24.5
2017-07-24T17:26:34.097Z,24.2
2017-07-24T17:27:35.818Z,24.2
2017-07-24T17:28:37.535Z,24.5
2017-07-24T17:29:39.262Z,24.5
2017-07-24T17:30:41.000Z,24.0
2017-07-24T17:31:42.714Z,24.0
2017-07-24T17:32:44.428Z,24.3
2017-07-24T17:33:46.138Z,24.7
2017-07-24T17:34:47.849Z,24.4
2017-07-24T17:35:49.585Z,24.4
2017-07-24T17:36:51.309Z,24.2
2017-07-24T17:37:53.017Z,24.1
2017-07-24T17:38:54.741Z,24.6
2017-07-24T17:39:56.454Z,24.4
2017-07-24T17:40:58.170Z,24.6
2017-07-24T17:41:59.897Z,24.1
2017-07-24T17:43:01.637Z,23.9
2017-07-24T17:44:03.343Z,23.7
2017-07-24T17:45:05.021Z,23.3
2017-07-24T17:46:06.756Z,23.6
2017-07-24T17:47:08.489Z,24.2
2017-07-24T17:48:10.202Z,23.8
2017-07-24T17:49:11.921Z,23.9
2017-07-24T17:50:13.642Z,24.2
2017-07-24T17:51:15.363Z,24.0
2017-07-24T17:52:17.077Z,24.5
2017-07-24T17:53:18.818Z,24.4
2017-07-24T17:54:20.551Z,24.5
2017-07-24T17:55:22.272Z,23.6
2017-07-24T17:56:23.996Z,23.7
2017-07-24T17:57:25.725Z,24.2
2017-07-24T17:58:27.455Z,23.8
2017-07-24T17:59:29.170Z,23.4
2017-07-24T18:00:30.894Z,23.7
2017-07-24T18:01:32.629Z,24.0
2017-07-24T18:02:34.375Z,23.8
2017-07-24T18:03:36.118Z,23.7
2017-07-24T18:04:37.843Z,23.9
2017-07-24T18:05:39.576Z,23.5
2017-07-24T18:06:41.298Z,23.7
2017-07-24T18:07:43.016Z,23.6
2017-07-24T18:08:44.760Z,23.9
2017-07-24T18:09:46.477Z,24.0
2017-07-24T18:10:48.193Z,23.7
2017-07-24T18:11:49.922Z,23.7
2017-07-24T18:12:51.682Z,24.2
2017-07-24T18:13:53.400Z,24.1
2017-07-24T18:14:55.141Z,24.1
2017-07-24T18:15:56.900Z,23.9
2017-07-24T18:16:58.647Z,23.7
2017-07-24T18:18:00.393Z,23.7
2017-07-24T18:19:02.124Z,23.6
2017-07-24T18:20:03.890Z,24.4
2017-07-24T18:21:05.629Z,24.2
2017-07-24T18:22:07.361Z,23.9
2017-07-24T18:23:09.083Z,23.6
2017-07-24T18:24:10.805Z,23.6
2017-07-24T18:25:12.520Z,24.1
2017-07-24T18:26:14.252Z,23.8
2017-07-24T18:27:15.982Z,23.7
2017-07-24T18:28:17.737Z,23.6
2017-07-24T18:29:19.496Z,24.2
2017-07-24T18:30:21.213Z,23.6
2017-07-24T18:31:23.468Z,23.7
2017-07-24T18:32:25.197Z,23.6
2017-07-24T18:33:26.898Z,23.4
2017-07-24T18:34:28.664Z,23.4
2017-07-24T18:35:30.403Z,23.4
2017-07-24T18:36:32.141Z,22.2
2017-07-24T18:37:33.893Z,21.4
2017-07-24T18:38:35.616Z,20.9
2017-07-24T18:39:37.335Z,20.8
2017-07-24T18:40:39.055Z,20.7
2017-07-24T18:41:40.766Z,20.7
2017-07-24T18:42:42.504Z,20.7
2017-07-24T18:43:44.261Z,20.7
2017-07-24T18:44:46.025Z,20.4
2017-07-24T18:45:47.742Z,20.4
2017-07-24T18:46:49.457Z,20.3
2017-07-24T18:47:51.180Z,20.4
2017-07-24T18:48:52.892Z,20.4
2017-07-24T18:49:54.644Z,20.4
2017-07-24T18:50:56.397Z,20.3
2017-07-24T18:51:58.149Z,20.2
2017-07-24T18:52:59.873Z,20.4
2017-07-24T18:54:01.625Z,20.4
2017-07-24T18:55:03.356Z,20.2
2017-07-24T18:56:05.086Z,20.0
2017-07-24T18:57:06.798Z,20.2
2017-07-24T18:58:08.539Z,20.1
2017-07-24T18:59:10.266Z,20.3
2017-07-24T19:00:11.986Z,20.2
2017-07-24T19:01:13.699Z,20.3
2017-07-24T19:02:15.415Z,20.2
2017-07-24T19:03:17.131Z,20.1
2017-07-24T19:04:18.857Z,20.2
2017-07-24T19:05:20.575Z,20.2
2017-07-24T19:06:22.310Z,20.1
2017-07-24T19:07:24.014Z,20.2
2017-07-24T19:08:25.722Z,20.1
2017-07-24T19:09:27.430Z,20.0
2017-07-24T19:10:29.152Z,20.1
2017-07-24T19:11:30.858Z,20.1
2017-07-24T19:12:32.602Z,20.1
2017-07-24T19:13:34.350Z,19.9
2017-07-24T19:14:36.083Z,19.8
2017-07-24T19:15:37.801Z,19.8
2017-07-24T19:16:39.514Z,19.9
2017-07-24T19:17:41.226Z,19.9
2017-07-24T19:18:43.092Z,19.8
2017-07-24T19:19:44.825Z,19.5
2017-07-24T19:20:46.572Z,19.6
2017-07-24T19:21:48.340Z,19.6
2017-07-24T19:22:50.096Z,19.6
2017-07-24T19:23:51.810Z,19.7
2017-07-24T19:24:53.531Z,19.6
2017-07-24T19:25:55.261Z,19.8
2017-07-24T19:26:56.953Z,19.6
2017-07-24T19:27:58.673Z,19.6
2017-07-24T19:29:00.380Z,19.6
2017-07-24T19:30:02.109Z,19.7
2017-07-24T19:31:03.872Z,19.6
2017-07-24T19:32:06.322Z,19.5
2017-07-24T19:33:08.040Z,19.5
2017-07-24T19:34:09.755Z,19.3
2017-07-24T19:35:11.451Z,19.4
2017-07-24T19:36:13.211Z,19.3
2017-07-24T19:37:14.926Z,19.4
2017-07-24T19:38:16.642Z,19.4
2017-07-24T19:39:18.335Z,19.3
2017-07-24T19:40:20.069Z,19.4
2017-07-24T19:41:21.784Z,19.3
2017-07-24T19:42:23.486Z,19.2
2017-07-24T19:43:25.217Z,19.2
2017-07-24T19:44:26.935Z,19.2
2017-07-24T19:45:28.640Z,19.2
2017-07-24T19:46:30.348Z,19.0
2017-07-24T19:47:32.049Z,19.1
2017-07-24T19:48:33.749Z,19.0
2017-07-24T19:49:35.484Z,19.0
2017-07-24T19:50:37.212Z,19.1
2017-07-24T19:51:38.924Z,19.1
2017-07-24T19:52:40.636Z,19.1
2017-07-24T19:53:42.331Z,18.9
2017-07-24T19:54:44.058Z,18.9
2017-07-24T19:55:45.783Z,18.9
2017-07-24T19:56:47.511Z,19.0
2017-07-24T19:57:49.236Z,18.9
2017-07-24T19:58:50.973Z,18.8
2017-07-24T19:59:52.698Z,18.8
2017-07-24T20:00:54.415Z,18.8
2017-07-24T20:01:56.144Z,18.9
2017-07-24T20:02:57.864Z,18.8
2017-07-24T20:03:59.610Z,18.8
2017-07-24T20:05:01.354Z,18.9
2017-07-24T20:06:03.110Z,18.8
2017-07-24T20:07:04.837Z,18.8
2017-07-24T20:08:06.569Z,18.7
2017-07-24T20:09:08.422Z,18.8
2017-07-24T20:10:10.213Z,18.7
2017-07-24T20:11:11.935Z,18.7
2017-07-24T20:12:13.665Z,18.7
2017-07-24T20:13:15.386Z,18.7
2017-07-24T20:14:17.140Z,18.8
2017-07-24T20:15:18.905Z,18.7
2017-07-24T20:16:20.610Z,18.8
2017-07-24T20:17:22.358Z,18.6
2017-07-24T20:18:24.092Z,18.6
2017-07-24T20:19:25.818Z,18.5
2017-07-24T20:20:27.612Z,18.6
2017-07-24T20:21:29.316Z,18.7
2017-07-24T20:22:31.062Z,18.6
2017-07-24T20:23:32.806Z,18.6
2017-07-24T20:24:34.542Z,18.6
2017-07-24T20:25:36.256Z,18.7
2017-07-24T20:26:37.994Z,18.6
2017-07-24T20:27:39.729Z,18.6
2017-07-24T20:28:41.477Z,18.6
2017-07-24T20:29:43.211Z,18.6
2017-07-24T20:30:44.949Z,18.6
2017-07-24T20:31:46.693Z,18.5
2017-07-24T20:32:48.448Z,18.7
2017-07-24T20:33:50.195Z,18.6
2017-07-24T20:34:51.948Z,18.6
2017-07-24T20:35:53.670Z,18.7
2017-07-24T20:36:55.413Z,18.6
2017-07-24T20:37:57.190Z,18.6
2017-07-24T20:38:58.939Z,18.6
2017-07-24T20:40:00.734Z,18.5
2017-07-24T20:41:02.488Z,18.6
2017-07-24T20:42:04.256Z,18.5
2017-07-24T20:43:05.974Z,18.5
2017-07-24T20:44:07.693Z,18.6
2017-07-24T20:45:09.425Z,18.6
2017-07-24T20:46:11.125Z,18.5
2017-07-24T20:47:12.858Z,18.5
2017-07-24T20:48:14.610Z,18.5
2017-07-24T20:49:16.360Z,18.5
2017-07-24T20:50:18.113Z,18.4
2017-07-24T20:51:19.832Z,18.5
2017-07-24T20:52:21.584Z,18.5
2017-07-24T20:53:23.291Z,18.5
2017-07-24T20:54:25.010Z,18.5
2017-07-24T20:55:26.748Z,18.5
2017-07-24T20:56:28.504Z,18.4
2017-07-24T20:57:30.268Z,18.4
2017-07-24T20:58:32.000Z,18.5
2017-07-24T20:59:33.738Z,18.5
2017-07-24T21:00:35.501Z,18.5
2017-07-24T21:01:37.255Z,18.5
2017-07-24T21:02:39.002Z,18.5
2017-07-24T21:03:40.709Z,18.5
2017-07-24T21:04:42.463Z,18.4
2017-07-24T21:05:44.189Z,18.5
2017-07-24T21:06:45.910Z,18.4
2017-07-24T21:07:47.659Z,18.4
2017-07-24T21:08:49.399Z,18.5
2017-07-24T21:09:51.119Z,18.4
2017-07-24T21:10:52.867Z,18.5
2017-07-24T21:11:54.579Z,18.4
2017-07-24T21:12:56.308Z,18.5
2017-07-24T21:13:58.085Z,18.4
2017-07-24T21:14:59.825Z,18.5
2017-07-24T21:16:01.559Z,18.4
2017-07-24T21:17:03.321Z,18.3
2017-07-24T21:18:05.054Z,18.5
2017-07-24T21:19:06.863Z,18.5
2017-07-24T21:20:08.567Z,18.5
2017-07-24T21:21:10.275Z,18.6
2017-07-24T21:22:12.041Z,18.5
2017-07-24T21:23:13.819Z,18.5
2017-07-24T21:24:15.566Z,18.5
2017-07-24T21:25:17.300Z,18.5
2017-07-24T21:26:19.062Z,18.5
2017-07-24T21:27:20.770Z,18.5
2017-07-24T21:28:22.491Z,18.5
2017-07-24T21:29:24.198Z,18.5
2017-07-24T21:30:25.936Z,18.5
2017-07-24T21:31:27.714Z,18.5
2017-07-24T21:32:29.472Z,18.5
2017-07-24T21:33:31.169Z,18.5
2017-07-24T21:34:32.944Z,18.4
2017-07-24T21:35:34.669Z,18.4
2017-07-24T21:36:36.405Z,18.4
2017-07-24T21:37:38.167Z,18.5
2017-07-24T21:38:39.937Z,18.4
2017-07-24T21:39:41.677Z,18.5
2017-07-24T21:40:43.437Z,18.5
2017-07-24T21:41:45.196Z,18.4
2017-07-24T21:42:46.903Z,18.4
2017-07-24T21:43:48.631Z,18.4
2017-07-24T21:44:50.366Z,18.4
2017-07-24T21:45:52.064Z,18.4
2017-07-24T21:46:53.788Z,18.5
2017-07-24T21:47:55.566Z,18.5
2017-07-24T21:48:57.386Z,18.4
2017-07-24T21:49:59.150Z,18.5
2017-07-24T21:51:00.906Z,18.5
2017-07-24T21:52:02.641Z,18.4
2017-07-24T21:53:04.376Z,18.4
2017-07-24T21:54:06.123Z,18.4
2017-07-24T21:55:07.885Z,18.3
2017-07-24T21:56:09.686Z,18.4
2017-07-24T21:57:11.450Z,18.3
2017-07-24T21:58:13.279Z,18.3
2017-07-24T21:59:15.031Z,18.4
2017-07-24T22:00:16.789Z,18.4
2017-07-24T22:01:18.530Z,18.5
2017-07-24T22:02:20.331Z,18.4
2017-07-24T22:03:22.090Z,18.4
2017-07-24T22:04:23.816Z,18.5
2017-07-24T22:05:25.554Z,18.3
2017-07-24T22:06:27.343Z,18.4
2017-07-24T22:07:29.072Z,18.4
2017-07-24T22:08:30.824Z,18.3
2017-07-24T22:09:32.558Z,18.4
2017-07-24T22:10:34.310Z,18.4
2017-07-24T22:11:36.049Z,18.3
2017-07-24T22:12:37.786Z,18.4
2017-07-24T22:13:39.647Z,18.4
2017-07-24T22:14:41.388Z,18.3
2017-07-24T22:15:43.146Z,18.3
2017-07-24T22:16:44.903Z,18.3
2017-07-24T22:17:46.654Z,18.3
2017-07-24T22:18:48.390Z,18.4
2017-07-24T22:19:50.153Z,18.4
2017-07-24T22:20:51.872Z,18.3
2017-07-24T22:21:53.615Z,18.4
2017-07-24T22:22:55.347Z,18.4
2017-07-24T22:23:57.125Z,18.4
2017-07-24T22:24:58.845Z,18.4
2017-07-24T22:26:00.590Z,18.3
2017-07-24T22:27:02.361Z,18.4
2017-07-24T22:28:04.145Z,18.4
2017-07-24T22:29:05.901Z,18.3
2017-07-24T22:30:07.660Z,18.3
2017-07-24T22:31:09.396Z,18.4
2017-07-24T22:32:11.117Z,18.2
2017-07-24T22:33:12.867Z,18.3
2017-07-24T22:34:14.604Z,18.3
2017-07-24T22:35:16.390Z,18.3
2017-07-24T22:36:18.169Z,18.3
2017-07-24T22:37:19.960Z,18.4
2017-07-24T22:38:21.711Z,18.4
2017-07-24T22:39:23.538Z,18.4
2017-07-24T22:40:25.285Z,18.3
2017-07-24T22:41:27.016Z,18.3
2017-07-24T22:42:28.788Z,18.3
2017-07-24T22:43:30.572Z,18.3
2017-07-24T22:44:32.320Z,18.3
2017-07-24T22:45:34.085Z,18.2
2017-07-24T22:46:35.847Z,18.2
2017-07-24T22:47:37.594Z,18.2
2017-07-24T22:48:39.349Z,18.2
2017-07-24T22:49:41.121Z,18.2
2017-07-24T22:50:42.866Z,18.2
2017-07-24T22:51:44.632Z,18.1
2017-07-24T22:52:46.367Z,18.2
2017-07-24T22:53:48.137Z,18.2
2017-07-24T22:54:49.879Z,18.3
2017-07-24T22:55:51.616Z,18.3
2017-07-24T22:56:53.368Z,18.3
2017-07-24T22:57:55.090Z,18.2
2017-07-24T22:58:56.839Z,18.2
2017-07-24T22:59:58.587Z,18.2
2017-07-24T23:01:00.338Z,18.3
2017-07-24T23:02:02.059Z,18.3
2017-07-24T23:03:03.770Z,18.3
2017-07-24T23:04:05.498Z,18.2
2017-07-24T23:05:07.193Z,18.3
2017-07-24T23:06:08.940Z,18.3
2017-07-24T23:07:10.684Z,18.3
2017-07-24T23:08:12.429Z,18.2
2017-07-24T23:09:14.183Z,18.3
2017-07-24T23:10:15.881Z,18.2
2017-07-24T23:11:17.630Z,18.2
2017-07-24T23:12:19.464Z,18.2
2017-07-24T23:13:21.305Z,18.2
2017-07-24T23:14:23.135Z,18.2
2017-07-24T23:15:25.034Z,18.2
2017-07-24T23:16:26.732Z,18.2
2017-07-24T23:17:28.457Z,18.2
2017-07-24T23:18:30.192Z,18.2
2017-07-24T23:19:31.926Z,18.3
2017-07-24T23:20:33.627Z,18.2
2017-07-24T23:21:35.362Z,18.2
2017-07-24T23:22:37.106Z,18.2
2017-07-24T23:23:38.819Z,18.1
2017-07-24T23:24:40.538Z,18.2
2017-07-24T23:25:42.261Z,18.1
2017-07-24T23:26:43.974Z,18.1
2017-07-24T23:27:45.701Z,18.1
2017-07-24T23:28:47.417Z,18.0
2017-07-24T23:29:49.140Z,18.0
2017-07-24T23:30:50.873Z,18.0
2017-07-24T23:31:52.630Z,18.0
2017-07-24T23:32:54.406Z,18.0
2017-07-24T23:33:56.103Z,17.9
2017-07-24T23:34:57.812Z,17.9
2017-07-24T23:35:59.514Z,17.9
2017-07-24T23:37:01.256Z,17.9
2017-07-24T23:38:02.963Z,17.8
2017-07-24T23:39:04.665Z,18.0
2017-07-24T23:40:06.435Z,17.9
2017-07-24T23:41:08.147Z,17.8
2017-07-24T23:42:09.845Z,17.8
2017-07-24T23:43:11.730Z,17.9
2017-07-24T23:44:13.415Z,17.8
2017-07-24T23:45:15.149Z,17.9
2017-07-24T23:46:16.864Z,17.8
2017-07-24T23:47:18.597Z,17.8
2017-07-24T23:48:20.315Z,17.8
2017-07-24T23:49:22.057Z,17.8
2017-07-24T23:50:23.744Z,17.7
2017-07-24T23:51:26.227Z,17.9
2017-07-24T23:52:30.897Z,17.8
2017-07-24T23:53:32.618Z,17.8
2017-07-24T23:54:34.365Z,17.8
2017-07-24T23:55:36.092Z,17.8
2017-07-24T23:56:37.794Z,17.8
2017-07-24T23:57:39.516Z,17.7
2017-07-24T23:58:41.234Z,17.7
2017-07-24T23:59:43.262Z,17.7
